sensor_id;sensor_type;location;lat;lon;timestamp;P1;durP1;ratioP1;P2;durP2;ratioP2
41653;SDS011;68687;52.030;7.110;2023-06-14T00:01:03;9.65;;;5.80;;
41653;SDS011;68687;52.030;7.110;2023-06-14T00:03:31;11.38;;;6.25;;
41653;SDS011;68687;52.030;7.110;2023-06-14T00:05:56;23.85;;;6.70;;
41653;SDS011;68687;52.030;7.110;2023-06-14T00:08:22;9.05;;;6.07;;
41653;SDS011;68687;52.030;7.110;2023-06-14T00:10:49;10.50;;;5.85;;
41653;SDS011;68687;52.030;7.110;2023-06-14T00:13:21;6.90;;;5.60;;
41653;SDS011;68687;52.030;7.110;2023-06-14T00:15:46;12.85;;;6.20;;
41653;SDS011;68687;52.030;7.110;2023-06-14T00:18:15;10.05;;;6.13;;
41653;SDS011;68687;52.030;7.110;2023-06-14T00:20:41;11.00;;;5.68;;
41653;SDS011;68687;52.030;7.110;2023-06-14T00:23:06;7.88;;;5.80;;
41653;SDS011;68687;52.030;7.110;2023-06-14T00:25:32;7.95;;;5.55;;
41653;SDS011;68687;52.030;7.110;2023-06-14T00:27:57;8.48;;;5.45;;
41653;SDS011;68687;52.030;7.110;2023-06-14T00:30:23;10.60;;;5.78;;
41653;SDS011;68687;52.030;7.110;2023-06-14T00:32:49;7.22;;;5.18;;
41653;SDS011;68687;52.030;7.110;2023-06-14T00:35:21;9.35;;;5.85;;
41653;SDS011;68687;52.030;7.110;2023-06-14T00:37:55;10.27;;;6.25;;
41653;SDS011;68687;52.030;7.110;2023-06-14T00:40:20;7.97;;;6.13;;
41653;SDS011;68687;52.030;7.110;2023-06-14T00:42:52;6.55;;;5.72;;
41653;SDS011;68687;52.030;7.110;2023-06-14T00:45:18;9.85;;;5.10;;
41653;SDS011;68687;52.030;7.110;2023-06-14T00:47:43;8.07;;;5.78;;
41653;SDS011;68687;52.030;7.110;2023-06-14T00:50:11;11.23;;;5.72;;
41653;SDS011;68687;52.030;7.110;2023-06-14T00:52:38;7.88;;;5.72;;
41653;SDS011;68687;52.030;7.110;2023-06-14T00:55:04;9.55;;;5.38;;
41653;SDS011;68687;52.030;7.110;2023-06-14T00:57:31;5.75;;;5.20;;
41653;SDS011;68687;52.030;7.110;2023-06-14T00:59:56;6.93;;;5.55;;
41653;SDS011;68687;52.030;7.110;2023-06-14T01:02:21;5.78;;;5.25;;
41653;SDS011;68687;52.030;7.110;2023-06-14T01:04:48;7.93;;;5.35;;
41653;SDS011;68687;52.030;7.110;2023-06-14T01:13:14;13.98;;;5.75;;
41653;SDS011;68687;52.030;7.110;2023-06-14T01:15:44;8.55;;;5.60;;
41653;SDS011;68687;52.030;7.110;2023-06-14T01:18:10;9.40;;;5.88;;
41653;SDS011;68687;52.030;7.110;2023-06-14T01:20:42;7.72;;;5.60;;
41653;SDS011;68687;52.030;7.110;2023-06-14T01:23:10;9.45;;;5.18;;
41653;SDS011;68687;52.030;7.110;2023-06-14T01:25:37;7.72;;;5.40;;
41653;SDS011;68687;52.030;7.110;2023-06-14T01:28:04;13.15;;;5.47;;
41653;SDS011;68687;52.030;7.110;2023-06-14T01:30:41;6.93;;;4.70;;
41653;SDS011;68687;52.030;7.110;2023-06-14T01:33:10;9.48;;;5.22;;
41653;SDS011;68687;52.030;7.110;2023-06-14T01:35:38;9.13;;;4.75;;
41653;SDS011;68687;52.030;7.110;2023-06-14T01:38:04;7.07;;;5.30;;
41653;SDS011;68687;52.030;7.110;2023-06-14T01:40:31;8.65;;;4.88;;
41653;SDS011;68687;52.030;7.110;2023-06-14T01:42:59;10.52;;;5.32;;
41653;SDS011;68687;52.030;7.110;2023-06-14T01:45:26;6.60;;;5.68;;
41653;SDS011;68687;52.030;7.110;2023-06-14T01:48:01;6.43;;;5.47;;
41653;SDS011;68687;52.030;7.110;2023-06-14T01:50:30;9.63;;;5.47;;
41653;SDS011;68687;52.030;7.110;2023-06-14T01:52:56;8.10;;;5.43;;
41653;SDS011;68687;52.030;7.110;2023-06-14T01:55:21;6.55;;;5.30;;
41653;SDS011;68687;52.030;7.110;2023-06-14T01:57:50;6.50;;;5.68;;
41653;SDS011;68687;52.030;7.110;2023-06-14T02:00:20;12.57;;;5.65;;
41653;SDS011;68687;52.030;7.110;2023-06-14T02:02:52;5.57;;;5.07;;
41653;SDS011;68687;52.030;7.110;2023-06-14T02:05:17;8.23;;;5.40;;
41653;SDS011;68687;52.030;7.110;2023-06-14T02:07:46;8.73;;;5.28;;
41653;SDS011;68687;52.030;7.110;2023-06-14T02:10:12;7.68;;;5.63;;
41653;SDS011;68687;52.030;7.110;2023-06-14T02:12:38;8.45;;;4.97;;
41653;SDS011;68687;52.030;7.110;2023-06-14T02:15:04;9.80;;;5.22;;
41653;SDS011;68687;52.030;7.110;2023-06-14T02:17:30;9.75;;;5.18;;
41653;SDS011;68687;52.030;7.110;2023-06-14T02:19:59;8.13;;;4.93;;
41653;SDS011;68687;52.030;7.110;2023-06-14T02:22:24;8.18;;;5.43;;
41653;SDS011;68687;52.030;7.110;2023-06-14T02:24:56;6.35;;;5.40;;
41653;SDS011;68687;52.030;7.110;2023-06-14T02:27:24;8.98;;;5.07;;
41653;SDS011;68687;52.030;7.110;2023-06-14T02:29:49;6.18;;;4.50;;
41653;SDS011;68687;52.030;7.110;2023-06-14T02:32:14;6.75;;;4.82;;
41653;SDS011;68687;52.030;7.110;2023-06-14T02:34:40;6.60;;;5.45;;
41653;SDS011;68687;52.030;7.110;2023-06-14T02:37:06;7.07;;;5.43;;
41653;SDS011;68687;52.030;7.110;2023-06-14T02:39:31;7.35;;;5.43;;
41653;SDS011;68687;52.030;7.110;2023-06-14T02:41:57;8.80;;;5.40;;
41653;SDS011;68687;52.030;7.110;2023-06-14T02:44:25;7.50;;;5.68;;
41653;SDS011;68687;52.030;7.110;2023-06-14T02:47:00;6.47;;;5.20;;
41653;SDS011;68687;52.030;7.110;2023-06-14T02:49:26;8.27;;;5.35;;
41653;SDS011;68687;52.030;7.110;2023-06-14T02:51:51;18.45;;;5.43;;
41653;SDS011;68687;52.030;7.110;2023-06-14T02:54:16;9.02;;;5.05;;
41653;SDS011;68687;52.030;7.110;2023-06-14T02:56:42;6.28;;;4.95;;
41653;SDS011;68687;52.030;7.110;2023-06-14T02:59:07;11.23;;;5.22;;
41653;SDS011;68687;52.030;7.110;2023-06-14T03:01:34;5.88;;;4.90;;
41653;SDS011;68687;52.030;7.110;2023-06-14T03:04:02;5.68;;;5.00;;
41653;SDS011;68687;52.030;7.110;2023-06-14T03:06:31;7.22;;;5.28;;
41653;SDS011;68687;52.030;7.110;2023-06-14T03:08:57;9.13;;;5.65;;
41653;SDS011;68687;52.030;7.110;2023-06-14T03:11:28;8.32;;;5.47;;
41653;SDS011;68687;52.030;7.110;2023-06-14T03:13:54;7.30;;;5.25;;
41653;SDS011;68687;52.030;7.110;2023-06-14T03:16:20;7.70;;;5.90;;
41653;SDS011;68687;52.030;7.110;2023-06-14T03:18:51;12.50;;;5.18;;
41653;SDS011;68687;52.030;7.110;2023-06-14T03:21:19;5.63;;;5.10;;
41653;SDS011;68687;52.030;7.110;2023-06-14T03:23:56;9.15;;;5.05;;
41653;SDS011;68687;52.030;7.110;2023-06-14T03:26:22;8.00;;;5.22;;
41653;SDS011;68687;52.030;7.110;2023-06-14T03:28:47;7.95;;;4.88;;
41653;SDS011;68687;52.030;7.110;2023-06-14T03:31:15;6.28;;;4.95;;
41653;SDS011;68687;52.030;7.110;2023-06-14T03:33:41;9.82;;;5.28;;
41653;SDS011;68687;52.030;7.110;2023-06-14T03:36:06;7.80;;;4.75;;
41653;SDS011;68687;52.030;7.110;2023-06-14T03:38:32;13.02;;;4.78;;
41653;SDS011;68687;52.030;7.110;2023-06-14T03:40:58;7.18;;;4.78;;
41653;SDS011;68687;52.030;7.110;2023-06-14T03:43:23;10.02;;;4.40;;
41653;SDS011;68687;52.030;7.110;2023-06-14T03:45:51;15.85;;;5.00;;
41653;SDS011;68687;52.030;7.110;2023-06-14T03:48:17;9.05;;;4.32;;
41653;SDS011;68687;52.030;7.110;2023-06-14T03:50:42;7.88;;;4.97;;
41653;SDS011;68687;52.030;7.110;2023-06-14T03:53:08;5.05;;;4.43;;
41653;SDS011;68687;52.030;7.110;2023-06-14T03:55:33;6.05;;;5.07;;
41653;SDS011;68687;52.030;7.110;2023-06-14T03:57:58;6.40;;;4.32;;
41653;SDS011;68687;52.030;7.110;2023-06-14T04:00:24;11.13;;;4.68;;
41653;SDS011;68687;52.030;7.110;2023-06-14T04:02:52;11.23;;;4.85;;
41653;SDS011;68687;52.030;7.110;2023-06-14T04:05:27;11.32;;;4.43;;
41653;SDS011;68687;52.030;7.110;2023-06-14T04:07:56;9.57;;;4.78;;
41653;SDS011;68687;52.030;7.110;2023-06-14T04:10:22;8.27;;;4.82;;
41653;SDS011;68687;52.030;7.110;2023-06-14T04:12:47;7.88;;;4.25;;
41653;SDS011;68687;52.030;7.110;2023-06-14T04:15:13;7.10;;;4.15;;
41653;SDS011;68687;52.030;7.110;2023-06-14T04:17:38;7.93;;;4.00;;
41653;SDS011;68687;52.030;7.110;2023-06-14T04:20:04;8.20;;;4.30;;
41653;SDS011;68687;52.030;7.110;2023-06-14T04:22:31;6.13;;;4.25;;
41653;SDS011;68687;52.030;7.110;2023-06-14T04:25:05;8.63;;;5.18;;
41653;SDS011;68687;52.030;7.110;2023-06-14T04:27:31;4.75;;;4.28;;
41653;SDS011;68687;52.030;7.110;2023-06-14T04:29:59;8.95;;;4.82;;
41653;SDS011;68687;52.030;7.110;2023-06-14T04:32:28;5.82;;;4.38;;
41653;SDS011;68687;52.030;7.110;2023-06-14T04:34:57;10.95;;;4.85;;
41653;SDS011;68687;52.030;7.110;2023-06-14T04:37:24;8.07;;;4.43;;
41653;SDS011;68687;52.030;7.110;2023-06-14T04:39:49;7.03;;;4.47;;
41653;SDS011;68687;52.030;7.110;2023-06-14T04:42:19;11.23;;;4.80;;
41653;SDS011;68687;52.030;7.110;2023-06-14T04:44:45;6.38;;;4.45;;
41653;SDS011;68687;52.030;7.110;2023-06-14T04:47:12;9.70;;;4.72;;
41653;SDS011;68687;52.030;7.110;2023-06-14T04:49:39;9.75;;;4.93;;
41653;SDS011;68687;52.030;7.110;2023-06-14T04:52:06;12.15;;;4.80;;
41653;SDS011;68687;52.030;7.110;2023-06-14T04:54:32;6.70;;;4.47;;
41653;SDS011;68687;52.030;7.110;2023-06-14T04:57:04;8.25;;;4.85;;
41653;SDS011;68687;52.030;7.110;2023-06-14T04:59:30;7.40;;;4.35;;
41653;SDS011;68687;52.030;7.110;2023-06-14T05:01:58;8.10;;;4.55;;
41653;SDS011;68687;52.030;7.110;2023-06-14T05:04:24;6.47;;;4.88;;
41653;SDS011;68687;52.030;7.110;2023-06-14T05:06:51;7.53;;;4.93;;
41653;SDS011;68687;52.030;7.110;2023-06-14T05:09:16;8.75;;;4.75;;
41653;SDS011;68687;52.030;7.110;2023-06-14T05:11:48;5.72;;;4.18;;
41653;SDS011;68687;52.030;7.110;2023-06-14T05:14:13;8.02;;;4.65;;
41653;SDS011;68687;52.030;7.110;2023-06-14T05:16:39;7.43;;;4.00;;
41653;SDS011;68687;52.030;7.110;2023-06-14T05:19:17;6.00;;;4.50;;
41653;SDS011;68687;52.030;7.110;2023-06-14T05:21:43;7.60;;;4.65;;
41653;SDS011;68687;52.030;7.110;2023-06-14T05:27:11;9.85;;;4.80;;
41653;SDS011;68687;52.030;7.110;2023-06-14T05:29:37;10.68;;;4.95;;
41653;SDS011;68687;52.030;7.110;2023-06-14T05:32:03;5.80;;;4.30;;
41653;SDS011;68687;52.030;7.110;2023-06-14T05:34:28;9.55;;;5.10;;
41653;SDS011;68687;52.030;7.110;2023-06-14T05:36:53;6.72;;;4.85;;
41653;SDS011;68687;52.030;7.110;2023-06-14T05:39:19;10.52;;;4.47;;
41653;SDS011;68687;52.030;7.110;2023-06-14T05:41:50;13.15;;;4.53;;
41653;SDS011;68687;52.030;7.110;2023-06-14T05:44:15;12.40;;;4.97;;
41653;SDS011;68687;52.030;7.110;2023-06-14T05:46:41;7.78;;;4.30;;
41653;SDS011;68687;52.030;7.110;2023-06-14T05:52:28;9.63;;;4.32;;
41653;SDS011;68687;52.030;7.110;2023-06-14T05:54:57;5.97;;;3.90;;
41653;SDS011;68687;52.030;7.110;2023-06-14T05:57:22;8.35;;;3.78;;
41653;SDS011;68687;52.030;7.110;2023-06-14T05:59:54;7.05;;;4.88;;
41653;SDS011;68687;52.030;7.110;2023-06-14T06:02:19;5.47;;;4.32;;
41653;SDS011;68687;52.030;7.110;2023-06-14T06:04:51;6.85;;;4.63;;
41653;SDS011;68687;52.030;7.110;2023-06-14T06:07:16;5.65;;;4.70;;
41653;SDS011;68687;52.030;7.110;2023-06-14T06:09:43;8.75;;;4.38;;
41653;SDS011;68687;52.030;7.110;2023-06-14T06:12:09;6.72;;;4.65;;
41653;SDS011;68687;52.030;7.110;2023-06-14T06:14:35;6.38;;;4.30;;
41653;SDS011;68687;52.030;7.110;2023-06-14T06:17:00;8.55;;;4.53;;
41653;SDS011;68687;52.030;7.110;2023-06-14T06:19:25;5.50;;;4.40;;
41653;SDS011;68687;52.030;7.110;2023-06-14T06:21:51;5.63;;;3.63;;
41653;SDS011;68687;52.030;7.110;2023-06-14T06:24:22;6.47;;;4.25;;
41653;SDS011;68687;52.030;7.110;2023-06-14T06:26:47;5.70;;;4.32;;
41653;SDS011;68687;52.030;7.110;2023-06-14T06:29:13;5.00;;;4.35;;
41653;SDS011;68687;52.030;7.110;2023-06-14T06:31:39;7.40;;;4.60;;
41653;SDS011;68687;52.030;7.110;2023-06-14T06:34:13;5.95;;;3.53;;
41653;SDS011;68687;52.030;7.110;2023-06-14T06:36:38;6.32;;;3.85;;
41653;SDS011;68687;52.030;7.110;2023-06-14T06:39:04;8.15;;;4.00;;
41653;SDS011;68687;52.030;7.110;2023-06-14T06:41:35;4.45;;;3.40;;
41653;SDS011;68687;52.030;7.110;2023-06-14T06:44:08;5.40;;;3.35;;
41653;SDS011;68687;52.030;7.110;2023-06-14T06:46:38;6.47;;;3.38;;
41653;SDS011;68687;52.030;7.110;2023-06-14T06:49:07;6.43;;;3.47;;
41653;SDS011;68687;52.030;7.110;2023-06-14T06:51:34;3.72;;;3.38;;
41653;SDS011;68687;52.030;7.110;2023-06-14T06:54:01;3.92;;;3.47;;
41653;SDS011;68687;52.030;7.110;2023-06-14T06:56:27;6.78;;;4.00;;
41653;SDS011;68687;52.030;7.110;2023-06-14T06:58:55;4.88;;;3.97;;
41653;SDS011;68687;52.030;7.110;2023-06-14T07:01:24;5.05;;;3.60;;
41653;SDS011;68687;52.030;7.110;2023-06-14T07:03:49;5.38;;;3.35;;
41653;SDS011;68687;52.030;7.110;2023-06-14T07:06:17;3.70;;;3.17;;
41653;SDS011;68687;52.030;7.110;2023-06-14T07:08:44;3.60;;;3.22;;
41653;SDS011;68687;52.030;7.110;2023-06-14T07:11:09;3.35;;;3.05;;
41653;SDS011;68687;52.030;7.110;2023-06-14T07:13:34;9.57;;;3.92;;
41653;SDS011;68687;52.030;7.110;2023-06-14T07:16:00;4.43;;;2.95;;
41653;SDS011;68687;52.030;7.110;2023-06-14T07:18:31;6.70;;;3.60;;
41653;SDS011;68687;52.030;7.110;2023-06-14T07:20:57;4.75;;;3.58;;
41653;SDS011;68687;52.030;7.110;2023-06-14T07:23:22;3.95;;;3.28;;
41653;SDS011;68687;52.030;7.110;2023-06-14T07:25:51;11.13;;;3.15;;
41653;SDS011;68687;52.030;7.110;2023-06-14T07:28:17;4.32;;;3.35;;
41653;SDS011;68687;52.030;7.110;2023-06-14T07:30:43;3.88;;;3.05;;
41653;SDS011;68687;52.030;7.110;2023-06-14T07:33:08;6.90;;;3.72;;
41653;SDS011;68687;52.030;7.110;2023-06-14T07:35:35;5.30;;;3.20;;
41653;SDS011;68687;52.030;7.110;2023-06-14T07:38:03;12.27;;;3.75;;
41653;SDS011;68687;52.030;7.110;2023-06-14T07:40:40;3.67;;;3.38;;
41653;SDS011;68687;52.030;7.110;2023-06-14T07:43:05;8.30;;;3.10;;
41653;SDS011;68687;52.030;7.110;2023-06-14T07:45:31;3.55;;;3.20;;
41653;SDS011;68687;52.030;7.110;2023-06-14T07:47:56;3.63;;;3.28;;
41653;SDS011;68687;52.030;7.110;2023-06-14T07:50:24;5.73;;;3.10;;
41653;SDS011;68687;52.030;7.110;2023-06-14T07:52:53;2.97;;;2.72;;
41653;SDS011;68687;52.030;7.110;2023-06-14T07:55:18;14.13;;;3.55;;
41653;SDS011;68687;52.030;7.110;2023-06-14T07:57:44;6.05;;;3.30;;
41653;SDS011;68687;52.030;7.110;2023-06-14T08:00:09;4.05;;;3.53;;
41653;SDS011;68687;52.030;7.110;2023-06-14T08:02:55;3.47;;;3.00;;
41653;SDS011;68687;52.030;7.110;2023-06-14T08:05:23;5.25;;;3.25;;
41653;SDS011;68687;52.030;7.110;2023-06-14T08:07:50;3.58;;;3.13;;
41653;SDS011;68687;52.030;7.110;2023-06-14T08:10:16;3.17;;;2.97;;
41653;SDS011;68687;52.030;7.110;2023-06-14T08:12:41;3.38;;;3.08;;
41653;SDS011;68687;52.030;7.110;2023-06-14T08:15:06;2.95;;;2.75;;
41653;SDS011;68687;52.030;7.110;2023-06-14T08:17:35;5.57;;;2.85;;
41653;SDS011;68687;52.030;7.110;2023-06-14T08:20:04;3.17;;;2.50;;
41653;SDS011;68687;52.030;7.110;2023-06-14T08:22:30;3.85;;;3.20;;
41653;SDS011;68687;52.030;7.110;2023-06-14T08:24:58;3.58;;;2.80;;
41653;SDS011;68687;52.030;7.110;2023-06-14T08:27:24;7.57;;;3.13;;
41653;SDS011;68687;52.030;7.110;2023-06-14T08:29:59;4.68;;;2.63;;
41653;SDS011;68687;52.030;7.110;2023-06-14T08:32:24;4.07;;;3.50;;
41653;SDS011;68687;52.030;7.110;2023-06-14T08:34:53;5.75;;;3.28;;
41653;SDS011;68687;52.030;7.110;2023-06-14T08:37:18;4.85;;;3.15;;
41653;SDS011;68687;52.030;7.110;2023-06-14T08:39:43;5.00;;;2.80;;
41653;SDS011;68687;52.030;7.110;2023-06-14T08:42:09;5.68;;;3.17;;
41653;SDS011;68687;52.030;7.110;2023-06-14T08:44:35;5.28;;;2.97;;
41653;SDS011;68687;52.030;7.110;2023-06-14T08:47:02;3.15;;;2.33;;
41653;SDS011;68687;52.030;7.110;2023-06-14T08:49:35;3.60;;;2.78;;
41653;SDS011;68687;52.030;7.110;2023-06-14T08:52:08;5.82;;;3.28;;
41653;SDS011;68687;52.030;7.110;2023-06-14T08:54:35;4.55;;;2.88;;
41653;SDS011;68687;52.030;7.110;2023-06-14T08:57:05;3.35;;;2.83;;
41653;SDS011;68687;52.030;7.110;2023-06-14T08:59:32;4.18;;;3.05;;
41653;SDS011;68687;52.030;7.110;2023-06-14T09:02:04;3.30;;;3.00;;
41653;SDS011;68687;52.030;7.110;2023-06-14T09:04:30;2.38;;;2.17;;
41653;SDS011;68687;52.030;7.110;2023-06-14T09:06:57;4.30;;;2.63;;
41653;SDS011;68687;52.030;7.110;2023-06-14T09:09:23;3.45;;;2.90;;
41653;SDS011;68687;52.030;7.110;2023-06-14T09:11:50;8.02;;;2.80;;
41653;SDS011;68687;52.030;7.110;2023-06-14T09:14:17;3.03;;;2.70;;
41653;SDS011;68687;52.030;7.110;2023-06-14T09:16:43;3.42;;;3.03;;
41653;SDS011;68687;52.030;7.110;2023-06-14T09:19:08;3.92;;;2.90;;
41653;SDS011;68687;52.030;7.110;2023-06-14T09:21:42;7.03;;;3.10;;
41653;SDS011;68687;52.030;7.110;2023-06-14T09:24:13;4.35;;;3.10;;
41653;SDS011;68687;52.030;7.110;2023-06-14T09:26:42;4.80;;;2.70;;
41653;SDS011;68687;52.030;7.110;2023-06-14T09:29:08;5.82;;;2.72;;
41653;SDS011;68687;52.030;7.110;2023-06-14T09:31:34;4.88;;;3.33;;
41653;SDS011;68687;52.030;7.110;2023-06-14T09:34:01;3.45;;;3.03;;
41653;SDS011;68687;52.030;7.110;2023-06-14T09:36:27;5.43;;;2.78;;
41653;SDS011;68687;52.030;7.110;2023-06-14T09:41:32;8.45;;;2.65;;
41653;SDS011;68687;52.030;7.110;2023-06-14T09:43:59;5.22;;;2.65;;
41653;SDS011;68687;52.030;7.110;2023-06-14T09:46:27;3.63;;;2.60;;
41653;SDS011;68687;52.030;7.110;2023-06-14T09:48:53;6.30;;;2.40;;
41653;SDS011;68687;52.030;7.110;2023-06-14T09:51:18;5.07;;;2.75;;
41653;SDS011;68687;52.030;7.110;2023-06-14T09:53:47;5.53;;;2.55;;
41653;SDS011;68687;52.030;7.110;2023-06-14T09:56:15;3.88;;;3.03;;
41653;SDS011;68687;52.030;7.110;2023-06-14T09:58:50;6.90;;;3.15;;
41653;SDS011;68687;52.030;7.110;2023-06-14T10:01:20;4.20;;;3.00;;
41653;SDS011;68687;52.030;7.110;2023-06-14T10:03:55;4.60;;;2.95;;
41653;SDS011;68687;52.030;7.110;2023-06-14T10:06:23;6.15;;;3.03;;
41653;SDS011;68687;52.030;7.110;2023-06-14T10:08:53;9.18;;;2.92;;
41653;SDS011;68687;52.030;7.110;2023-06-14T10:11:26;5.38;;;2.78;;
41653;SDS011;68687;52.030;7.110;2023-06-14T10:13:55;3.17;;;2.75;;
41653;SDS011;68687;52.030;7.110;2023-06-14T10:19:02;3.22;;;2.80;;
41653;SDS011;68687;52.030;7.110;2023-06-14T10:24:21;5.55;;;2.40;;
41653;SDS011;68687;52.030;7.110;2023-06-14T10:26:54;4.30;;;2.13;;
41653;SDS011;68687;52.030;7.110;2023-06-14T10:29:25;4.68;;;2.25;;
41653;SDS011;68687;52.030;7.110;2023-06-14T10:31:55;3.88;;;3.08;;
41653;SDS011;68687;52.030;7.110;2023-06-14T10:34:31;9.32;;;2.80;;
41653;SDS011;68687;52.030;7.110;2023-06-14T10:37:06;11.85;;;2.90;;
41653;SDS011;68687;52.030;7.110;2023-06-14T10:39:40;7.15;;;2.85;;
41653;SDS011;68687;52.030;7.110;2023-06-14T10:42:10;5.43;;;2.80;;
41653;SDS011;68687;52.030;7.110;2023-06-14T10:44:51;3.28;;;2.42;;
41653;SDS011;68687;52.030;7.110;2023-06-14T10:47:21;4.25;;;2.90;;
41653;SDS011;68687;52.030;7.110;2023-06-14T10:50:10;3.85;;;2.75;;
41653;SDS011;68687;52.030;7.110;2023-06-14T10:52:42;2.92;;;2.50;;
41653;SDS011;68687;52.030;7.110;2023-06-14T10:55:14;2.78;;;2.58;;
41653;SDS011;68687;52.030;7.110;2023-06-14T10:57:45;5.10;;;3.05;;
41653;SDS011;68687;52.030;7.110;2023-06-14T11:00:23;2.58;;;2.38;;
41653;SDS011;68687;52.030;7.110;2023-06-14T11:05:32;4.93;;;2.60;;
41653;SDS011;68687;52.030;7.110;2023-06-14T11:11:31;3.05;;;2.42;;
41653;SDS011;68687;52.030;7.110;2023-06-14T11:14:00;2.67;;;2.20;;
41653;SDS011;68687;52.030;7.110;2023-06-14T11:16:27;3.25;;;2.25;;
41653;SDS011;68687;52.030;7.110;2023-06-14T11:18:58;2.38;;;2.17;;
41653;SDS011;68687;52.030;7.110;2023-06-14T11:21:26;3.85;;;2.10;;
41653;SDS011;68687;52.030;7.110;2023-06-14T11:24:02;3.08;;;2.42;;
41653;SDS011;68687;52.030;7.110;2023-06-14T11:26:31;5.30;;;2.30;;
41653;SDS011;68687;52.030;7.110;2023-06-14T11:28:59;6.05;;;2.63;;
41653;SDS011;68687;52.030;7.110;2023-06-14T11:31:26;3.10;;;2.60;;
41653;SDS011;68687;52.030;7.110;2023-06-14T11:33:56;8.45;;;2.58;;
41653;SDS011;68687;52.030;7.110;2023-06-14T11:36:31;6.85;;;2.95;;
41653;SDS011;68687;52.030;7.110;2023-06-14T11:39:16;6.45;;;2.75;;
41653;SDS011;68687;52.030;7.110;2023-06-14T11:41:43;4.55;;;2.75;;
41653;SDS011;68687;52.030;7.110;2023-06-14T11:44:09;2.92;;;2.60;;
41653;SDS011;68687;52.030;7.110;2023-06-14T11:46:38;3.42;;;2.60;;
41653;SDS011;68687;52.030;7.110;2023-06-14T11:49:06;11.98;;;2.47;;
41653;SDS011;68687;52.030;7.110;2023-06-14T11:51:35;3.03;;;2.72;;
41653;SDS011;68687;52.030;7.110;2023-06-14T11:54:04;7.20;;;2.50;;
41653;SDS011;68687;52.030;7.110;2023-06-14T11:59:54;5.32;;;2.35;;
41653;SDS011;68687;52.030;7.110;2023-06-14T12:02:21;4.88;;;2.65;;
41653;SDS011;68687;52.030;7.110;2023-06-14T12:04:47;5.32;;;2.35;;
41653;SDS011;68687;52.030;7.110;2023-06-14T12:07:16;6.05;;;2.58;;
41653;SDS011;68687;52.030;7.110;2023-06-14T12:12:20;3.33;;;2.20;;
41653;SDS011;68687;52.030;7.110;2023-06-14T12:14:49;3.22;;;2.83;;
41653;SDS011;68687;52.030;7.110;2023-06-14T12:17:16;6.95;;;2.70;;
41653;SDS011;68687;52.030;7.110;2023-06-14T12:19:43;11.20;;;2.42;;
41653;SDS011;68687;52.030;7.110;2023-06-14T12:22:09;2.60;;;2.30;;
41653;SDS011;68687;52.030;7.110;2023-06-14T12:24:35;3.42;;;2.28;;
41653;SDS011;68687;52.030;7.110;2023-06-14T12:27:00;3.95;;;2.30;;
41653;SDS011;68687;52.030;7.110;2023-06-14T12:29:29;4.63;;;2.40;;
41653;SDS011;68687;52.030;7.110;2023-06-14T12:31:55;5.07;;;2.30;;
41653;SDS011;68687;52.030;7.110;2023-06-14T12:34:22;4.93;;;2.28;;
41653;SDS011;68687;52.030;7.110;2023-06-14T12:36:49;3.25;;;2.53;;
41653;SDS011;68687;52.030;7.110;2023-06-14T12:39:18;3.05;;;2.75;;
41653;SDS011;68687;52.030;7.110;2023-06-14T12:41:43;5.07;;;2.42;;
41653;SDS011;68687;52.030;7.110;2023-06-14T12:44:12;3.85;;;2.50;;
41653;SDS011;68687;52.030;7.110;2023-06-14T12:46:37;7.78;;;2.72;;
41653;SDS011;68687;52.030;7.110;2023-06-14T12:49:04;4.32;;;2.88;;
41653;SDS011;68687;52.030;7.110;2023-06-14T12:51:33;2.75;;;2.55;;
41653;SDS011;68687;52.030;7.110;2023-06-14T12:54:01;3.53;;;2.72;;
41653;SDS011;68687;52.030;7.110;2023-06-14T12:56:30;4.50;;;3.00;;
41653;SDS011;68687;52.030;7.110;2023-06-14T12:58:55;5.82;;;2.67;;
41653;SDS011;68687;52.030;7.110;2023-06-14T13:01:23;4.82;;;2.65;;
41653;SDS011;68687;52.030;7.110;2023-06-14T13:03:49;2.78;;;2.58;;
41653;SDS011;68687;52.030;7.110;2023-06-14T13:06:16;5.47;;;2.20;;
41653;SDS011;68687;52.030;7.110;2023-06-14T13:08:41;4.53;;;2.53;;
41653;SDS011;68687;52.030;7.110;2023-06-14T13:11:13;2.45;;;2.25;;
41653;SDS011;68687;52.030;7.110;2023-06-14T13:13:38;3.13;;;2.90;;
41653;SDS011;68687;52.030;7.110;2023-06-14T13:16:03;5.60;;;2.70;;
41653;SDS011;68687;52.030;7.110;2023-06-14T13:18:28;3.65;;;2.80;;
41653;SDS011;68687;52.030;7.110;2023-06-14T13:20:57;4.30;;;2.60;;
41653;SDS011;68687;52.030;7.110;2023-06-14T13:23:22;4.45;;;3.15;;
41653;SDS011;68687;52.030;7.110;2023-06-14T13:25:51;2.63;;;2.40;;
41653;SDS011;68687;52.030;7.110;2023-06-14T13:28:16;8.02;;;2.67;;
41653;SDS011;68687;52.030;7.110;2023-06-14T13:30:42;5.68;;;2.70;;
41653;SDS011;68687;52.030;7.110;2023-06-14T13:33:07;2.88;;;2.60;;
41653;SDS011;68687;52.030;7.110;2023-06-14T13:35:32;3.33;;;2.45;;
41653;SDS011;68687;52.030;7.110;2023-06-14T13:37:58;2.97;;;2.40;;
41653;SDS011;68687;52.030;7.110;2023-06-14T13:40:26;2.88;;;2.50;;
41653;SDS011;68687;52.030;7.110;2023-06-14T13:42:51;2.63;;;2.38;;
41653;SDS011;68687;52.030;7.110;2023-06-14T13:45:16;3.50;;;2.67;;
41653;SDS011;68687;52.030;7.110;2023-06-14T13:47:45;3.10;;;2.35;;
41653;SDS011;68687;52.030;7.110;2023-06-14T13:50:13;4.65;;;2.33;;
41653;SDS011;68687;52.030;7.110;2023-06-14T13:52:39;3.40;;;2.78;;
41653;SDS011;68687;52.030;7.110;2023-06-14T13:55:05;3.78;;;2.58;;
41653;SDS011;68687;52.030;7.110;2023-06-14T13:57:33;2.58;;;2.30;;
41653;SDS011;68687;52.030;7.110;2023-06-14T13:59:59;6.43;;;2.40;;
41653;SDS011;68687;52.030;7.110;2023-06-14T14:02:29;3.95;;;2.40;;
41653;SDS011;68687;52.030;7.110;2023-06-14T14:04:54;5.30;;;2.88;;
41653;SDS011;68687;52.030;7.110;2023-06-14T14:07:23;2.65;;;2.40;;
41653;SDS011;68687;52.030;7.110;2023-06-14T14:09:51;3.97;;;2.92;;
41653;SDS011;68687;52.030;7.110;2023-06-14T14:12:18;6.00;;;2.90;;
41653;SDS011;68687;52.030;7.110;2023-06-14T14:14:43;3.90;;;3.47;;
41653;SDS011;68687;52.030;7.110;2023-06-14T14:17:11;3.35;;;3.13;;
41653;SDS011;68687;52.030;7.110;2023-06-14T14:19:37;5.63;;;3.25;;
41653;SDS011;68687;52.030;7.110;2023-06-14T14:22:02;3.97;;;3.28;;
41653;SDS011;68687;52.030;7.110;2023-06-14T14:24:27;5.13;;;3.33;;
41653;SDS011;68687;52.030;7.110;2023-06-14T14:26:53;3.53;;;2.97;;
41653;SDS011;68687;52.030;7.110;2023-06-14T14:29:21;3.50;;;2.80;;
41653;SDS011;68687;52.030;7.110;2023-06-14T14:31:53;3.83;;;3.10;;
41653;SDS011;68687;52.030;7.110;2023-06-14T14:34:19;7.43;;;2.92;;
41653;SDS011;68687;52.030;7.110;2023-06-14T14:36:44;5.38;;;2.30;;
41653;SDS011;68687;52.030;7.110;2023-06-14T14:39:12;7.80;;;2.78;;
41653;SDS011;68687;52.030;7.110;2023-06-14T14:41:38;5.47;;;2.38;;
41653;SDS011;68687;52.030;7.110;2023-06-14T14:44:04;9.93;;;2.75;;
41653;SDS011;68687;52.030;7.110;2023-06-14T14:46:30;2.38;;;2.15;;
41653;SDS011;68687;52.030;7.110;2023-06-14T14:48:55;8.52;;;2.63;;
41653;SDS011;68687;52.030;7.110;2023-06-14T14:51:21;4.60;;;2.78;;
41653;SDS011;68687;52.030;7.110;2023-06-14T14:53:46;5.75;;;2.30;;
41653;SDS011;68687;52.030;7.110;2023-06-14T14:56:11;3.60;;;2.80;;
41653;SDS011;68687;52.030;7.110;2023-06-14T14:58:37;3.97;;;2.63;;
41653;SDS011;68687;52.030;7.110;2023-06-14T15:01:02;3.20;;;2.40;;
41653;SDS011;68687;52.030;7.110;2023-06-14T15:03:28;6.85;;;2.90;;
41653;SDS011;68687;52.030;7.110;2023-06-14T15:05:53;4.55;;;3.15;;
41653;SDS011;68687;52.030;7.110;2023-06-14T15:08:21;3.28;;;2.25;;
41653;SDS011;68687;52.030;7.110;2023-06-14T15:10:47;2.88;;;2.47;;
41653;SDS011;68687;52.030;7.110;2023-06-14T15:13:13;2.83;;;2.40;;
41653;SDS011;68687;52.030;7.110;2023-06-14T15:15:38;2.50;;;2.30;;
41653;SDS011;68687;52.030;7.110;2023-06-14T15:18:04;3.77;;;2.27;;
41653;SDS011;68687;52.030;7.110;2023-06-14T15:20:32;4.20;;;2.22;;